Time;durP1;ratioP1;P1;durP2;ratioP2;P2;SDS_P1;SDS_P2;PMS_P1;PMS_P2;Temp;Humidity;BMP_temperature;BMP_pressure;BME280_temperature;BME280_humidity;BME280_pressure;Samples;Min_cycle;Max_cycle;Signal;HPM_P1;HPM_P2
2022/05/12 00:00:52;;;;;;;9.13;4.63;;;;;;;11.46;100.00;97863.91;5033498;28;20559;-84
2022/05/12 00:03:18;;;;;;;8.02;5.00;;;;;;;11.38;100.00;97859.88;5033141;28;20029;-84
2022/05/12 00:05:44;;;;;;;7.88;4.70;;;;;;;11.32;100.00;97854.88;5033296;28;20108;-84
2022/05/12 00:08:10;;;;;;;6.60;4.55;;;;;;;11.34;100.00;97861.03;5033470;28;20025;-84
2022/05/12 00:10:36;;;;;;;7.68;4.55;;;;;;;11.25;100.00;97853.56;5033419;28;20022;-84
2022/05/12 00:13:03;;;;;;;6.80;4.55;;;;;;;11.21;100.00;97860.03;5033390;28;20025;-83
2022/05/12 00:15:31;;;;;;;13.90;4.60;;;;;;;11.15;100.00;97855.03;5033127;28;20506;-84
2022/05/12 00:17:58;;;;;;;8.63;5.25;;;;;;;11.08;100.00;97852.81;5032736;28;20029;-84
2022/05/12 00:20:25;;;;;;;6.90;4.60;;;;;;;10.94;100.00;97842.94;5032380;28;20103;-84
2022/05/12 00:22:51;;;;;;;9.63;4.90;;;;;;;11.02;100.00;97867.41;5032587;28;20112;-84
2022/05/12 00:25:20;;;;;;;9.68;4.82;;;;;;;10.94;100.00;97859.00;5032443;28;20033;-84
2022/05/12 00:27:45;;;;;;;6.90;4.30;;;;;;;10.97;100.00;97864.16;5032416;28;20017;-84
2022/05/12 00:30:12;;;;;;;10.60;5.57;;;;;;;10.98;100.00;97865.03;5032175;28;20041;-84
2022/05/12 00:32:39;;;;;;;11.35;5.60;;;;;;;10.98;100.00;97863.22;5032743;28;20425;-84
2022/05/12 00:35:06;;;;;;;7.68;4.93;;;;;;;10.94;100.00;97858.13;5015592;28;20021;-84
2022/05/12 00:37:32;;;;;;;7.32;5.05;;;;;;;10.92;100.00;97868.91;5031844;28;20492;-85
2022/05/12 00:39:58;;;;;;;10.43;5.32;;;;;;;10.99;100.00;97866.72;5031746;28;20499;-85
2022/05/12 00:42:23;;;;;;;10.60;6.47;;;;;;;10.94;100.00;97864.34;5014301;28;20068;-86
2022/05/12 00:44:49;;;;;;;9.90;5.82;;;;;;;10.85;100.00;97860.41;5015310;28;20378;-84
2022/05/12 00:47:14;;;;;;;8.95;5.82;;;;;;;10.89;100.00;97853.88;5014706;28;20082;-84
2022/05/12 00:49:40;;;;;;;11.02;5.72;;;;;;;10.97;100.00;97865.97;5031658;28;20029;-85
2022/05/12 00:52:11;;;;;;;13.57;5.38;;;;;;;10.96;100.00;97862.44;5014852;28;20037;-85
2022/05/12 00:54:48;;;;;;;5.97;4.82;;;;;;;10.98;100.00;97865.03;5031407;28;20025;-84
2022/05/12 00:57:17;;;;;;;9.88;4.88;;;;;;;10.86;100.00;97861.22;5031503;28;20110;-84
2022/05/12 00:59:43;;;;;;;10.50;4.82;;;;;;;10.81;100.00;97868.66;5031804;28;20030;-85
2022/05/12 01:02:12;;;;;;;10.05;5.32;;;;;;;10.83;100.00;97856.94;5015255;28;20477;-84
2022/05/12 01:04:39;;;;;;;7.72;5.20;;;;;;;10.85;100.00;97875.59;5031565;28;20025;-84
2022/05/12 01:07:05;;;;;;;9.95;5.60;;;;;;;10.76;100.00;97876.13;5031650;28;20025;-84
2022/05/12 01:09:31;;;;;;;11.50;5.95;;;;;;;10.72;100.00;97859.38;5031532;28;20052;-84
2022/05/12 01:11:57;;;;;;;12.60;5.78;;;;;;;10.73;100.00;97854.88;5032237;28;20021;-85
2022/05/12 01:14:23;;;;;;;9.35;5.75;;;;;;;10.70;100.00;97855.06;5030551;28;20116;-85
2022/05/12 01:16:54;;;;;;;11.35;5.95;;;;;;;10.73;100.00;97865.59;5032510;28;20480;-85
2022/05/12 01:19:24;;;;;;;12.57;6.93;;;;;;;10.60;100.00;97864.56;5015784;28;20112;-85
2022/05/12 01:21:51;;;;;;;9.52;6.40;;;;;;;10.53;100.00;97860.50;5032730;28;20025;-84
2022/05/12 01:24:18;;;;;;;10.52;6.78;;;;;;;10.67;100.00;97866.81;5032394;28;20032;-85
2022/05/12 01:26:44;;;;;;;16.20;7.05;;;;;;;10.68;100.00;97873.00;5015828;28;20029;-85
2022/05/12 01:29:10;;;;;;;10.48;6.40;;;;;;;10.61;100.00;97877.00;5032318;28;20021;-85
2022/05/12 01:31:36;;;;;;;10.60;6.15;;;;;;;10.67;100.00;97882.00;5031890;28;20041;-84
2022/05/12 01:34:04;;;;;;;14.63;6.50;;;;;;;10.58;100.00;97861.94;5031648;28;20029;-84
2022/05/12 01:36:30;;;;;;;9.30;6.20;;;;;;;10.73;100.00;97881.63;5032011;28;20034;-84
2022/05/12 01:38:55;;;;;;;11.25;6.25;;;;;;;10.66;100.00;97866.88;5032442;28;20480;-84
2022/05/12 01:41:21;;;;;;;9.38;5.93;;;;;;;10.65;100.00;97875.84;5031736;28;20060;-83
2022/05/12 01:43:47;;;;;;;12.00;6.07;;;;;;;10.66;100.00;97869.56;5032033;28;20097;-82
2022/05/12 01:46:13;;;;;;;10.10;6.25;;;;;;;10.56;100.00;97871.03;5031368;28;20051;-83
2022/05/12 01:48:39;;;;;;;9.45;5.90;;;;;;;10.54;100.00;97880.94;5031091;28;20075;-83
2022/05/12 01:51:05;;;;;;;11.55;5.65;;;;;;;10.49;100.00;97873.19;5031078;28;20060;-84
2022/05/12 01:53:31;;;;;;;8.30;5.28;;;;;;;10.46;100.00;97877.84;5030995;28;20116;-83
2022/05/12 01:55:58;;;;;;;6.93;5.25;;;;;;;10.45;100.00;97882.34;5014620;28;20025;-83
2022/05/12 01:58:25;;;;;;;11.32;6.10;;;;;;;10.47;100.00;97884.91;5030756;28;20037;-83
2022/05/12 02:00:50;;;;;;;11.68;5.90;;;;;;;10.47;100.00;97880.44;5014692;28;20071;-84
2022/05/12 02:03:16;;;;;;;9.07;5.03;;;;;;;10.50;100.00;97892.75;5030557;28;20057;-83
2022/05/12 02:05:42;;;;;;;11.60;5.82;;;;;;;10.54;100.00;97897.00;5030453;28;20025;-84
2022/05/12 02:08:09;;;;;;;10.30;5.45;;;;;;;10.46;100.00;97894.75;5030759;28;20040;-83
2022/05/12 02:10:38;;;;;;;8.63;5.47;;;;;;;10.42;100.00;97882.50;5030582;28;20455;-83
2022/05/12 02:13:05;;;;;;;11.18;5.75;;;;;;;10.31;100.00;97898.28;5030393;28;20049;-84
2022/05/12 02:15:31;;;;;;;12.18;6.40;;;;;;;10.22;100.00;97880.06;5030348;28;20256;-84
2022/05/12 02:17:56;;;;;;;9.23;5.78;;;;;;;10.24;100.00;97899.56;5030255;28;20112;-84
2022/05/12 02:20:23;;;;;;;8.88;5.45;;;;;;;10.19;100.00;97901.63;5030429;28;20393;-85
2022/05/12 02:22:49;;;;;;;11.90;5.22;;;;;;;10.10;100.00;97900.28;5031542;28;20037;-82
2022/05/12 02:25:16;;;;;;;12.63;7.82;;;;;;;10.12;100.00;97905.56;5031994;28;20029;-83
2022/05/12 02:27:49;;;;;;;9.55;5.95;;;;;;;10.08;100.00;97899.53;5027221;28;20057;-83
2022/05/12 02:30:19;;;;;;;9.82;5.80;;;;;;;10.07;100.00;97900.44;5012961;28;20057;-84
2022/05/12 02:32:45;;;;;;;17.05;7.22;;;;;;;9.99;100.00;97894.66;5030975;28;20025;-84
2022/05/12 02:35:11;;;;;;;19.20;6.95;;;;;;;10.02;100.00;97902.53;5014928;28;20428;-85
2022/05/12 02:37:37;;;;;;;16.55;6.93;;;;;;;9.99;100.00;97900.03;5030537;28;20029;-83
2022/05/12 02:40:03;;;;;;;14.95;6.28;;;;;;;9.92;100.00;97893.25;5030798;28;20029;-85
2022/05/12 02:42:29;;;;;;;10.57;6.32;;;;;;;9.97;100.00;97895.66;5014444;28;20091;-85
2022/05/12 02:44:54;;;;;;;11.18;6.38;;;;;;;9.98;100.00;97902.75;5031499;28;20065;-84
2022/05/12 02:47:20;;;;;;;15.45;6.57;;;;;;;9.88;100.00;97899.72;5014948;28;20061;-84
2022/05/12 02:49:45;;;;;;;16.10;7.10;;;;;;;9.80;100.00;97900.13;5031562;28;20477;-84
2022/05/12 02:52:11;;;;;;;17.30;7.57;;;;;;;9.74;100.00;97910.28;5015324;28;20025;-85
2022/05/12 02:54:37;;;;;;;15.77;7.15;;;;;;;9.73;100.00;97908.53;5014549;28;20052;-83
2022/05/12 02:57:03;;;;;;;19.88;6.78;;;;;;;9.71;100.00;97894.41;5030645;28;20025;-84
2022/05/12 02:59:29;;;;;;;10.18;6.88;;;;;;;9.78;100.00;97914.53;5030258;28;20037;-85
2022/05/12 03:01:54;;;;;;;21.55;6.82;;;;;;;9.77;100.00;97905.63;5030734;28;20029;-83
2022/05/12 03:04:20;;;;;;;13.02;6.40;;;;;;;9.67;100.00;97898.19;5015183;28;20485;-84
2022/05/12 03:06:46;;;;;;;21.30;7.55;;;;;;;9.63;100.00;97896.59;5034382;28;20091;-83
2022/05/12 03:09:12;;;;;;;13.40;6.60;;;;;;;9.69;100.00;97907.84;5019245;28;20086;-84
2022/05/12 03:11:39;;;;;;;14.35;6.97;;;;;;;9.58;100.00;97899.53;5015100;28;20076;-86
2022/05/12 03:14:05;;;;;;;22.48;9.23;;;;;;;9.47;100.00;97882.34;5046777;28;20010;-85
2022/05/12 03:16:30;;;;;;;21.77;8.52;;;;;;;9.64;100.00;97912.56;5034393;28;20033;-84
2022/05/12 03:18:57;;;;;;;42.88;13.27;;;;;;;9.61;100.00;97911.84;5035165;28;20369;-84
2022/05/12 03:21:23;;;;;;;55.17;16.45;;;;;;;9.69;100.00;97928.38;5034829;28;20458;-83
2022/05/12 03:23:49;;;;;;;20.50;9.35;;;;;;;9.62;100.00;97914.47;5034945;28;20082;-83
2022/05/12 03:26:22;;;;;;;22.80;7.80;;;;;;;9.72;100.00;97922.88;5036572;28;20029;-84
2022/05/12 03:28:48;;;;;;;20.52;8.20;;;;;;;9.54;100.00;97897.09;5020008;28;20107;-85
2022/05/12 03:31:16;;;;;;;18.92;7.90;;;;;;;9.56;100.00;97903.22;5019388;28;20049;-86
2022/05/12 03:33:42;;;;;;;17.63;7.47;;;;;;;9.71;100.00;97922.00;5015580;28;20026;-78
2022/05/12 03:36:08;;;;;;;23.58;7.07;;;;;;;9.63;100.00;97923.31;5032767;28;20092;-77
2022/05/12 03:38:34;;;;;;;21.85;7.00;;;;;;;9.75;100.00;97944.06;5033056;28;20502;-80
2022/05/12 03:41:00;;;;;;;13.38;6.43;;;;;;;9.72;100.00;97931.72;5032347;28;20017;-78
2022/05/12 03:46:12;;;;;;;16.73;6.55;;;;;;;9.80;100.00;97936.66;5033603;28;20040;-77
2022/05/12 03:48:39;;;;;;;12.77;6.05;;;;;;;9.84;100.00;97937.38;5032240;28;20578;-80
2022/05/12 03:51:05;;;;;;;10.35;6.20;;;;;;;9.92;100.00;97936.03;5032428;28;20029;-79
2022/05/12 03:53:31;;;;;;;12.30;6.20;;;;;;;10.03;100.00;97941.66;5032295;28;20113;-79
2022/05/12 03:55:58;;;;;;;11.70;6.55;;;;;;;10.06;100.00;97935.28;5016122;28;20049;-83
2022/05/12 03:58:24;;;;;;;14.00;6.85;;;;;;;10.13;100.00;97934.00;5032289;28;20034;-79
2022/05/12 04:00:50;;;;;;;19.08;7.72;;;;;;;10.21;100.00;97943.34;5032074;28;20400;-80
2022/05/12 04:03:16;;;;;;;11.95;7.10;;;;;;;10.30;100.00;97937.50;5032253;28;20017;-79
2022/05/12 04:05:42;;;;;;;13.65;6.70;;;;;;;10.38;100.00;97942.44;5032133;28;20107;-80
2022/05/12 04:08:08;;;;;;;16.55;6.65;;;;;;;10.50;100.00;97946.25;5015621;28;20569;-79
2022/05/12 04:10:34;;;;;;;15.68;7.88;;;;;;;10.62;100.00;97948.25;5015638;28;20033;-79
2022/05/12 04:12:59;;;;;;;12.68;7.90;;;;;;;10.64;100.00;97947.22;5015386;28;20049;-80
2022/05/12 04:15:25;;;;;;;16.55;8.50;;;;;;;10.62;100.00;97934.88;5033994;28;20410;-82
2022/05/12 04:18:01;;;;;;;13.88;7.70;;;;;;;10.78;100.00;97954.47;5031806;28;20026;-79
2022/05/12 04:20:29;;;;;;;16.55;7.55;;;;;;;11.01;100.00;97956.72;5032006;28;20044;-80
2022/05/12 04:22:54;;;;;;;15.77;8.23;;;;;;;11.94;100.00;97961.00;5030367;28;20045;-80
2022/05/12 04:25:21;;;;;;;20.42;8.40;;;;;;;13.07;93.97;97965.47;5015064;28;20033;-80
2022/05/12 04:27:47;;;;;;;14.32;7.63;;;;;;;13.96;85.33;97956.75;5014468;28;20090;-80
2022/05/12 04:30:15;;;;;;;10.40;7.57;;;;;;;13.82;83.50;97958.63;5031243;28;20049;-78
2022/05/12 04:32:41;;;;;;;27.50;8.35;;;;;;;13.41;85.04;97964.97;5031113;28;20025;-79
2022/05/12 04:35:14;;;;;;;20.50;8.48;;;;;;;13.11;87.37;97967.00;5024634;28;20026;-79
2022/05/12 04:37:49;;;;;;;20.95;8.65;;;;;;;12.90;88.88;97965.69;5031535;28;20033;-79
2022/05/12 04:40:16;;;;;;;19.52;8.65;;;;;;;12.74;90.58;97965.78;5014975;28;20485;-80
2022/05/12 04:42:43;;;;;;;15.25;8.75;;;;;;;12.68;92.17;97963.50;5031470;28;20017;-80
2022/05/12 04:45:10;;;;;;;13.13;8.63;;;;;;;12.65;93.63;97968.19;5006525;28;20134;-79
2022/05/12 04:47:37;;;;;;;18.63;8.65;;;;;;;12.72;92.81;97965.03;5031673;28;20417;-80
2022/05/12 04:50:04;;;;;;;18.20;9.55;;;;;;;12.79;93.00;97973.56;5031449;28;20025;-80
2022/05/12 04:52:30;;;;;;;19.35;9.00;;;;;;;12.91;92.87;97967.41;5015042;28;20060;-79
2022/05/12 04:54:55;;;;;;;22.65;9.80;;;;;;;12.94;92.52;97970.75;5014474;28;20497;-79
2022/05/12 04:57:21;;;;;;;22.02;9.95;;;;;;;13.03;91.77;97970.16;5006917;28;20064;-79
2022/05/12 04:59:49;;;;;;;21.05;10.20;;;;;;;13.18;92.28;97976.38;5031179;28;20029;-80
2022/05/12 05:02:15;;;;;;;24.40;9.57;;;;;;;13.29;91.70;97981.91;5031220;28;20499;-79
2022/05/12 05:04:40;;;;;;;24.92;10.30;;;;;;;13.42;91.32;97973.91;5031016;28;20069;-79
2022/05/12 05:07:08;;;;;;;20.73;10.05;;;;;;;13.66;90.67;97974.09;5030953;28;20061;-79
2022/05/12 05:09:34;;;;;;;20.75;10.25;;;;;;;13.78;90.53;97973.28;5030810;28;20111;-80
2022/05/12 05:12:00;;;;;;;31.70;10.27;;;;;;;13.99;88.79;97974.50;5030832;28;20059;-79
2022/05/12 05:14:25;;;;;;;32.70;10.27;;;;;;;14.15;87.00;97976.97;5030568;28;20049;-78
2022/05/12 05:16:52;;;;;;;29.65;10.27;;;;;;;14.69;83.85;97967.72;5014471;28;20044;-79
2022/05/12 05:19:20;;;;;;;23.25;10.20;;;;;;;15.70;79.06;97968.28;5030648;28;20112;-83
2022/05/12 05:21:46;;;;;;;21.67;10.55;;;;;;;17.23;71.87;97969.56;5030694;28;20472;-79
2022/05/12 05:24:12;;;;;;;21.80;10.38;;;;;;;19.25;63.85;97946.63;5030721;28;20029;-79
2022/05/12 05:26:37;;;;;;;28.48;10.40;;;;;;;20.99;55.18;97963.56;5030554;28;20215;-79
2022/05/12 05:29:03;;;;;;;29.20;11.05;;;;;;;21.88;51.25;97944.72;5030598;28;20078;-79
2022/05/12 05:31:29;;;;;;;25.83;12.48;;;;;;;22.78;48.60;97950.78;5030280;28;20504;-79
2022/05/12 05:33:55;;;;;;;29.98;12.15;;;;;;;23.12;47.41;97948.06;5014222;28;20029;-79
2022/05/12 05:36:20;;;;;;;22.58;10.93;;;;;;;23.47;45.44;97941.59;5014111;28;20040;-79
2022/05/12 05:38:47;;;;;;;28.92;12.07;;;;;;;23.37;46.16;97935.38;5030456;28;20029;-79
2022/05/12 05:41:13;;;;;;;28.17;11.70;;;;;;;24.52;44.01;97938.97;5030763;28;20111;-79
2022/05/12 05:43:39;;;;;;;25.92;10.95;;;;;;;25.23;42.06;97936.28;5014277;28;20072;-79
2022/05/12 05:46:05;;;;;;;21.65;11.73;;;;;;;25.26;41.93;97935.91;5030808;28;20489;-79
2022/05/12 05:48:31;;;;;;;24.98;12.07;;;;;;;25.60;41.27;97936.47;5030579;28;20025;-79
2022/05/12 05:53:41;;;;;;;18.55;11.57;;;;;;;24.64;42.62;97946.66;5031129;28;20032;-79
2022/05/12 05:56:14;;;;;;;25.15;11.98;;;;;;;25.93;40.25;97937.16;5030601;28;20022;-78
2022/05/12 05:58:41;;;;;;;16.90;11.98;;;;;;;25.17;41.83;97935.09;5028763;28;20033;-79
2022/05/12 06:01:06;;;;;;;22.90;12.13;;;;;;;26.58;38.97;97937.50;5030452;28;20025;-79
2022/05/12 06:03:32;;;;;;;26.30;12.30;;;;;;;26.50;39.10;97934.84;5030089;28;20412;-79
2022/05/12 06:05:58;;;;;;;20.50;10.95;;;;;;;27.77;37.48;97920.88;5030371;28;20029;-79
2022/05/12 06:08:23;;;;;;;20.52;9.90;;;;;;;28.00;36.49;97925.16;5030790;28;20036;-79
2022/05/12 06:10:49;;;;;;;20.23;10.45;;;;;;;28.49;35.72;97919.72;5031187;28;20026;-80
2022/05/12 06:13:15;;;;;;;15.00;8.95;;;;;;;28.60;35.76;97925.75;5030463;28;20025;-80
2022/05/12 06:15:42;;;;;;;14.93;9.68;;;;;;;30.23;33.61;97922.22;5030228;28;20029;-80
2022/05/12 06:18:13;;;;;;;32.53;10.00;;;;;;;30.47;32.71;97910.59;5030116;28;20025;-80
2022/05/12 06:20:41;;;;;;;25.90;8.75;;;;;;;30.90;31.65;97924.81;5013493;28;20052;-80
2022/05/12 06:23:08;;;;;;;10.68;8.07;;;;;;;29.36;33.75;97917.44;5030267;28;20405;-80
2022/05/12 06:25:34;;;;;;;18.38;8.35;;;;;;;29.88;33.10;97911.31;5008582;28;20504;-80
2022/05/12 06:28:00;;;;;;;17.27;7.20;;;;;;;29.69;32.71;97916.72;5030051;28;20026;-80
2022/05/12 06:30:27;;;;;;;8.70;6.63;;;;;;;29.14;33.80;97929.56;5029675;28;20107;-80
2022/05/12 06:32:56;;;;;;;14.32;6.70;;;;;;;29.09;34.22;97929.34;5029398;28;20105;-80
2022/05/12 06:35:23;;;;;;;9.82;6.88;;;;;;;29.78;33.10;97923.78;5029776;28;20029;-80
2022/05/12 06:37:56;;;;;;;14.55;7.07;;;;;;;29.45;33.12;97909.84;5029594;28;20033;-80
2022/05/12 06:40:22;;;;;;;12.07;6.95;;;;;;;29.86;32.88;97907.06;5014598;28;20040;-78
2022/05/12 06:42:48;;;;;;;12.45;6.00;;;;;;;30.46;31.95;97909.75;5033481;28;20026;-80
2022/05/12 06:45:16;;;;;;;14.90;6.68;;;;;;;30.96;31.25;97910.19;5017333;28;20026;-79
2022/05/12 06:47:48;;;;;;;7.93;6.38;;;;;;;30.29;32.35;97913.94;5033604;28;20414;-79
2022/05/12 06:50:14;;;;;;;;;;;;;;;29.43;33.46;97915.56;5017699;28;20120;-79
2022/05/12 06:52:40;;;;;;;12.15;6.47;;;;;;;28.97;34.33;97911.66;5033462;28;20426;-79
2022/05/12 06:55:06;;;;;;;12.75;7.47;;;;;;;29.62;33.57;97907.59;5033458;28;20025;-79
2022/05/12 06:57:31;;;;;;;15.27;7.05;;;;;;;29.09;34.33;97910.03;5033486;28;20481;-79
2022/05/12 06:59:57;;;;;;;11.50;7.68;;;;;;;28.44;35.05;97913.97;5016944;28;20037;-80
2022/05/12 07:02:25;;;;;;;14.35;8.35;;;;;;;27.85;36.09;97913.34;5033158;28;20036;-79
2022/05/12 07:04:52;;;;;;;21.35;11.02;;;;;;;28.40;35.77;97915.41;5016569;28;20160;-79
2022/05/12 07:07:20;;;;;;;13.43;7.10;;;;;;;29.18;34.73;97910.72;5033117;28;20036;-79
2022/05/12 07:09:46;;;;;;;20.95;6.72;;;;;;;31.31;32.08;97902.44;5032668;28;20033;-79
2022/05/12 07:12:13;;;;;;;15.45;6.32;;;;;;;31.47;31.43;97902.81;5033106;28;20378;-80
2022/05/12 07:14:39;;;;;;;11.05;7.50;;;;;;;29.13;34.67;97911.34;5033241;28;20065;-80
2022/05/12 07:17:05;;;;;;;14.40;6.97;;;;;;;28.14;36.42;97919.81;5033110;28;20481;-79
2022/05/12 07:19:33;;;;;;;20.02;7.38;;;;;;;29.21;35.60;97915.81;5033022;28;20030;-79
2022/05/12 07:27:27;;;;;;;16.48;6.20;;;;;;;32.46;30.77;97894.84;5032853;28;20036;-79
2022/05/12 07:29:53;;;;;;;20.65;8.18;;;;;;;32.65;29.97;97884.72;5032656;28;20033;-79
2022/05/12 07:32:19;;;;;;;14.68;6.22;;;;;;;31.26;31.27;97861.59;5033031;28;20026;-80
2022/05/12 07:34:45;;;;;;;7.22;5.63;;;;;;;31.08;31.79;97892.72;5031210;28;20025;-80
2022/05/12 07:37:10;;;;;;;12.30;5.72;;;;;;;32.40;30.36;97879.13;5032913;28;20155;-79
2022/05/12 07:39:36;;;;;;;13.20;6.28;;;;;;;32.52;30.76;97882.00;5032429;28;20033;-79
2022/05/12 07:42:03;;;;;;;19.80;6.45;;;;;;;33.34;29.69;97878.06;5032377;28;20040;-79
2022/05/12 07:44:34;;;;;;;9.82;6.22;;;;;;;33.84;29.00;97878.75;5032506;28;20037;-79
2022/05/12 07:47:03;;;;;;;9.80;5.53;;;;;;;34.91;27.99;97881.38;5032703;28;20029;-78
2022/05/12 07:49:31;;;;;;;9.98;5.60;;;;;;;34.89;28.09;97874.38;5033526;28;20492;-78
2022/05/12 07:51:58;;;;;;;19.42;5.55;;;;;;;34.88;27.91;97876.31;5032085;28;20014;-78
2022/05/12 07:54:23;;;;;;;8.70;5.22;;;;;;;35.29;27.97;97875.31;5032161;28;20048;-78
2022/05/12 07:56:49;;;;;;;6.90;4.57;;;;;;;35.06;27.82;97875.31;5015522;28;20029;-79
2022/05/12 07:59:15;;;;;;;13.00;5.60;;;;;;;33.97;28.94;97875.78;5032440;28;20048;-78
2022/05/12 08:01:40;;;;;;;14.77;5.00;;;;;;;33.62;29.26;97868.16;5032079;28;20044;-80
2022/05/12 08:04:06;;;;;;;13.02;6.47;;;;;;;34.04;28.85;97865.44;5032189;28;20052;-77
2022/05/12 08:06:32;;;;;;;6.25;4.90;;;;;;;34.68;28.03;97868.28;5015442;28;20033;-76
2022/05/12 08:08:57;;;;;;;12.63;4.97;;;;;;;35.87;26.84;97870.47;5031612;28;20025;-78
2022/05/12 08:11:24;;;;;;;15.15;5.43;;;;;;;35.74;26.71;97858.81;5032043;28;20452;-78
2022/05/12 08:13:50;;;;;;;8.45;4.90;;;;;;;34.95;27.30;97874.22;5032720;28;20036;-78
2022/05/12 08:16:18;;;;;;;7.53;4.13;;;;;;;35.12;27.24;97866.03;5031761;28;20029;-78
2022/05/12 08:18:46;;;;;;;8.18;4.00;;;;;;;35.59;26.27;97855.72;5031722;28;20378;-78
2022/05/12 08:21:13;;;;;;;11.32;4.18;;;;;;;36.71;25.09;97860.38;5032067;28;20116;-78
2022/05/12 08:23:39;;;;;;;8.07;4.95;;;;;;;36.71;25.51;97849.22;5031602;28;20087;-78
2022/05/12 08:26:05;;;;;;;15.23;3.95;;;;;;;36.78;24.47;97847.13;5031595;28;20445;-79
2022/05/12 08:28:31;;;;;;;19.02;6.18;;;;;;;37.32;24.04;97845.44;5031695;28;20553;-79
2022/05/12 08:30:57;;;;;;;23.92;5.65;;;;;;;37.07;23.36;97841.44;5031003;28;20041;-79
2022/05/12 08:33:23;;;;;;;12.38;4.30;;;;;;;36.84;23.78;97837.72;5014935;28;20056;-80
2022/05/12 08:35:49;;;;;;;10.05;3.50;;;;;;;35.84;22.89;97820.84;5014764;28;20060;-79
2022/05/12 08:38:16;;;;;;;9.98;3.25;;;;;;;37.07;21.88;97819.94;5031502;28;20061;-78
2022/05/12 08:41:03;;;;;;;6.95;3.63;;;;;;;37.75;21.29;97818.63;5031578;28;20474;-79
2022/05/12 08:43:49;;;;;;;12.23;4.22;;;;;;;37.79;20.91;97820.66;5032681;28;20055;-79
2022/05/12 08:46:18;;;;;;;17.27;3.67;;;;;;;35.07;21.26;97811.09;5017280;28;20424;-79
2022/05/12 08:48:45;;;;;;;14.20;3.28;;;;;;;35.38;21.65;97809.84;5031511;28;20033;-79
2022/05/12 08:51:19;;;;;;;11.90;4.25;;;;;;;36.94;20.74;97810.00;5031333;28;20039;-80
2022/05/12 08:53:52;;;;;;;3.47;2.90;;;;;;;37.35;19.57;97804.97;5031476;28;20025;-78
2022/05/12 08:56:21;;;;;;;4.65;2.80;;;;;;;35.64;20.50;97803.75;5031240;28;20346;-82
2022/05/12 08:58:47;;;;;;;6.30;3.40;;;;;;;35.49;21.01;97811.75;5031378;28;20026;-77
2022/05/12 09:01:23;;;;;;;10.07;3.95;;;;;;;36.30;20.52;97807.81;5031005;28;20033;-78
2022/05/12 09:04:18;;;;;;;7.70;2.97;;;;;;;37.48;19.12;97813.00;5030172;28;20120;-78
2022/05/12 09:07:09;;;;;;;4.95;2.90;;;;;;;38.91;18.16;97803.03;5014595;28;20033;-78
2022/05/12 09:09:54;;;;;;;10.07;3.30;;;;;;;38.67;18.50;97796.13;5032135;28;20022;-78
2022/05/12 09:12:36;;;;;;;6.13;3.08;;;;;;;39.22;17.98;97804.06;5030684;28;20116;-78
2022/05/12 09:15:16;;;;;;;10.35;4.07;;;;;;;39.24;17.93;97791.50;5031739;28;20029;-78
2022/05/12 09:18:09;;;;;;;8.77;2.95;;;;;;;39.13;17.91;97794.47;5030550;28;20439;-78
2022/05/12 09:20:36;;;;;;;11.70;3.38;;;;;;;38.93;17.98;97789.59;5024265;28;20090;-78
2022/05/12 09:23:04;;;;;;;7.05;3.10;;;;;;;38.95;17.51;97790.16;5030577;28;20025;-77
2022/05/12 09:25:40;;;;;;;6.38;3.20;;;;;;;38.06;19.10;97794.69;5013937;28;20032;-77
2022/05/12 09:28:29;;;;;;;8.23;2.97;;;;;;;38.50;18.95;97791.50;5030310;28;20079;-77
2022/05/12 09:30:59;;;;;;;6.75;3.33;;;;;;;37.28;19.85;97793.19;5030237;28;20033;-78
2022/05/12 09:33:34;;;;;;;7.75;3.22;;;;;;;37.95;19.64;97799.34;5014044;28;20473;-78
2022/05/12 09:36:03;;;;;;;8.75;3.92;;;;;;;38.10;19.16;97795.84;5030257;28;20499;-78
2022/05/12 09:38:29;;;;;;;4.63;2.63;;;;;;;37.64;19.47;97781.38;5030034;28;20499;-78
2022/05/12 09:40:56;;;;;;;4.97;3.15;;;;;;;38.57;18.82;97787.63;5013719;28;20025;-78
2022/05/12 09:43:29;;;;;;;5.68;2.90;;;;;;;38.45;18.59;97788.69;5027270;28;20026;-78
2022/05/12 09:46:05;;;;;;;11.00;3.13;;;;;;;37.97;19.35;97785.94;5030261;28;20017;-78
2022/05/12 09:48:36;;;;;;;8.32;3.10;;;;;;;38.01;18.77;97780.66;5027098;28;20036;-77
2022/05/12 09:51:22;;;;;;;6.55;3.22;;;;;;;37.66;19.24;97773.56;5029744;28;20065;-78
2022/05/12 09:53:53;;;;;;;10.45;4.32;;;;;;;38.83;19.00;97784.78;5029744;28;20022;-77
2022/05/12 09:56:28;;;;;;;18.27;7.88;;;;;;;38.28;18.89;97778.69;5029562;28;20033;-77
2022/05/12 09:59:06;;;;;;;10.13;4.95;;;;;;;39.02;18.40;97765.56;5025896;28;20029;-78
2022/05/12 10:01:33;;;;;;;6.53;3.63;;;;;;;38.71;18.91;97774.84;5013748;28;20121;-78
2022/05/12 10:07:59;;;;;;;4.82;3.17;;;;;;;38.95;18.06;97757.41;5029936;28;20091;-78
2022/05/12 10:10:27;;;;;;;10.60;2.78;;;;;;;39.09;18.57;97760.59;5019509;28;20029;-77
2022/05/12 10:13:04;;;;;;;6.63;2.90;;;;;;;39.89;18.17;97760.09;5029949;28;20029;-78
2022/05/12 10:15:33;;;;;;;11.80;3.58;;;;;;;40.32;18.22;97752.31;5029921;28;20025;-78
2022/05/12 10:18:28;;;;;;;8.10;3.92;;;;;;;40.20;18.32;97749.78;5013426;28;20480;-79
2022/05/12 10:20:55;;;;;;;5.28;3.70;;;;;;;40.30;17.42;97744.16;5026204;28;20473;-78
2022/05/12 10:23:46;;;;;;;9.57;3.30;;;;;;;41.20;16.70;97745.19;5029514;28;20048;-79
2022/05/12 10:26:16;;;;;;;7.30;4.23;;;;;;;41.23;16.83;97743.75;5029606;28;20029;-79
2022/05/12 10:28:45;;;;;;;8.63;3.57;;;;;;;39.89;17.16;97737.66;5031001;28;20272;-78
2022/05/12 10:31:31;;;;;;;6.68;2.85;;;;;;;39.41;17.46;97726.88;5013328;28;20080;-78
2022/05/12 10:34:24;;;;;;;19.02;11.68;;;;;;;40.10;17.52;97726.50;5025894;28;20025;-79
2022/05/12 10:37:18;;;;;;;7.50;4.97;;;;;;;40.96;17.48;97725.34;5030956;28;20087;-79
2022/05/12 10:39:52;;;;;;;7.38;4.20;;;;;;;40.48;17.56;97718.38;5029446;28;20036;-79
2022/05/12 10:42:26;;;;;;;8.70;3.95;;;;;;;40.88;17.49;97720.28;5029323;28;20105;-79
2022/05/12 10:45:04;;;;;;;5.20;3.47;;;;;;;41.30;17.68;97724.63;5029453;28;20033;-80
2022/05/12 10:47:45;;;;;;;4.15;2.92;;;;;;;40.72;17.78;97712.16;5030438;28;20524;-78
2022/05/12 10:50:37;;;;;;;6.80;3.40;;;;;;;41.59;17.18;97714.41;5025904;28;20049;-79
2022/05/12 10:53:18;;;;;;;8.32;3.78;;;;;;;41.09;17.50;97705.06;5023838;28;20569;-78
2022/05/12 10:56:08;;;;;;;6.57;3.25;;;;;;;39.86;17.70;97701.78;5029052;28;20480;-80
2022/05/12 10:59:04;;;;;;;6.13;3.28;;;;;;;40.32;17.96;97705.47;5027888;28;20022;-79
2022/05/12 11:01:35;;;;;;;15.07;8.43;;;;;;;40.06;18.31;97698.97;5013336;28;20033;-79
2022/05/12 11:04:07;;;;;;;12.32;6.50;;;;;;;39.16;18.67;97687.53;5029712;28;20035;-79
2022/05/12 11:06:49;;;;;;;6.38;3.42;;;;;;;39.75;17.97;97688.88;5030010;28;20033;-79
2022/05/12 11:09:19;;;;;;;4.30;3.55;;;;;;;39.24;18.87;97685.09;5029583;28;20040;-79
2022/05/12 11:11:48;;;;;;;4.30;3.08;;;;;;;39.40;18.42;97685.97;5027420;28;20022;-80
2022/05/12 11:14:31;;;;;;;11.18;3.70;;;;;;;40.81;17.55;97688.00;5029435;28;20115;-78
2022/05/12 11:17:02;;;;;;;7.25;3.25;;;;;;;41.54;16.86;97680.72;5029700;28;20503;-80
2022/05/12 11:19:28;;;;;;;5.82;3.20;;;;;;;41.47;16.58;97660.53;5029231;28;20424;-80
2022/05/12 11:22:00;;;;;;;8.90;3.28;;;;;;;40.64;17.37;97679.91;5012569;28;20029;-80
2022/05/12 11:24:44;;;;;;;8.30;3.28;;;;;;;39.51;18.71;97665.25;5030511;28;20097;-79
2022/05/12 11:27:09;;;;;;;3.78;3.40;;;;;;;40.23;17.94;97675.47;5031569;28;20503;-80
2022/05/12 11:29:53;;;;;;;10.75;3.78;;;;;;;40.01;17.97;97661.69;5032566;28;20033;-80
2022/05/12 11:32:53;;;;;;;4.78;2.92;;;;;;;41.32;17.37;97660.56;5029081;28;20530;-80
2022/05/12 11:35:22;;;;;;;5.90;3.30;;;;;;;41.86;16.96;97655.78;5025774;28;20033;-81
2022/05/12 11:37:53;;;;;;;4.45;3.22;;;;;;;41.80;16.78;97656.97;5032963;28;20072;-80
2022/05/12 11:40:48;;;;;;;5.75;2.90;;;;;;;41.31;16.55;97650.47;5032855;28;20057;-80
2022/05/12 11:46:41;;;;;;;12.25;3.55;;;;;;;40.83;17.26;97641.69;5034299;28;20151;-80
2022/05/12 11:49:44;;;;;;;7.10;3.60;;;;;;;41.25;16.79;97634.78;5032271;28;20079;-80
2022/05/12 11:52:17;;;;;;;3.20;2.90;;;;;;;40.52;17.69;97634.47;5034050;28;20116;-80